createdAt,value
2018-07-09T00:00:09.555Z,14.84
2018-07-09T00:01:09.595Z,14.94
2018-07-09T00:02:09.632Z,14.92
2018-07-09T00:03:09.670Z,14.88
2018-07-09T00:04:09.708Z,14.91
2018-07-09T00:05:09.746Z,14.94
2018-07-09T00:06:09.805Z,14.81
2018-07-09T00:07:09.821Z,14.80
2018-07-09T00:08:09.860Z,14.88
2018-07-09T00:09:09.897Z,14.70
2018-07-09T00:10:09.939Z,14.84
2018-07-09T00:11:09.982Z,14.83
2018-07-09T00:12:10.011Z,14.86
2018-07-09T00:13:10.050Z,14.68
2018-07-09T00:14:10.089Z,14.69
2018-07-09T00:15:10.125Z,14.61
2018-07-09T00:16:10.162Z,14.62
2018-07-09T00:17:10.200Z,14.65
2018-07-09T00:18:10.237Z,14.54
2018-07-09T00:19:10.274Z,14.58
2018-07-09T00:20:10.314Z,14.51
2018-07-09T00:21:10.353Z,14.39
2018-07-09T00:22:10.392Z,14.45
2018-07-09T00:23:10.428Z,14.36
2018-07-09T00:24:10.465Z,14.32
2018-07-09T00:25:10.505Z,14.39
2018-07-09T00:26:10.540Z,14.35
2018-07-09T00:27:10.579Z,14.33
2018-07-09T00:28:10.616Z,14.25
2018-07-09T00:29:10.660Z,14.35
2018-07-09T00:30:10.691Z,14.24
2018-07-09T00:31:10.730Z,14.21
2018-07-09T00:32:10.781Z,14.22
2018-07-09T00:33:10.806Z,14.28
2018-07-09T00:34:10.844Z,14.25
2018-07-09T00:35:10.882Z,14.24
2018-07-09T00:36:10.917Z,14.21
2018-07-09T00:37:10.964Z,14.24
2018-07-09T00:38:10.994Z,14.15
2018-07-09T00:39:11.032Z,14.25
2018-07-09T00:40:11.071Z,14.17
2018-07-09T00:41:11.112Z,14.15
2018-07-09T00:42:11.148Z,14.18
2018-07-09T00:43:11.183Z,14.18
2018-07-09T00:44:11.219Z,14.22
2018-07-09T00:45:11.258Z,14.22
2018-07-09T00:46:11.295Z,14.25
2018-07-09T00:47:11.331Z,14.22
2018-07-09T00:48:11.373Z,14.20
2018-07-09T00:49:11.407Z,14.12
2018-07-09T00:50:11.444Z,14.15
2018-07-09T00:51:11.484Z,14.18
2018-07-09T00:52:11.523Z,14.14
2018-07-09T00:53:11.558Z,14.09
2018-07-09T00:54:11.595Z,14.09
2018-07-09T00:55:11.632Z,13.96
2018-07-09T00:56:11.670Z,13.97
2018-07-09T00:57:11.708Z,14.00
2018-07-09T00:58:11.746Z,13.97
2018-07-09T00:59:11.783Z,13.99
2018-07-09T01:00:11.821Z,13.97
2018-07-09T01:01:11.859Z,13.91
2018-07-09T01:02:11.903Z,13.97
2018-07-09T01:03:11.936Z,13.89
2018-07-09T01:04:11.980Z,13.95
2018-07-09T01:05:12.008Z,13.87
2018-07-09T01:06:12.045Z,13.87
2018-07-09T01:07:12.084Z,13.85
2018-07-09T01:08:12.121Z,13.84
2018-07-09T01:09:12.166Z,13.87
2018-07-09T01:10:12.194Z,13.78
2018-07-09T01:11:12.334Z,13.81
2018-07-09T01:12:12.270Z,13.77
2018-07-09T01:13:12.307Z,13.75
2018-07-09T01:14:12.343Z,13.71
2018-07-09T01:15:12.383Z,13.66
2018-07-09T01:16:12.419Z,13.77
2018-07-09T01:17:12.455Z,13.63
2018-07-09T01:18:12.492Z,13.71
2018-07-09T01:19:12.537Z,13.66
2018-07-09T01:20:12.571Z,13.63
2018-07-09T01:21:12.607Z,13.55
2018-07-09T01:22:12.644Z,13.59
2018-07-09T01:23:12.681Z,13.54
2018-07-09T01:24:12.717Z,13.60
2018-07-09T01:25:12.755Z,13.60
2018-07-09T01:26:12.798Z,13.62
2018-07-09T01:27:12.829Z,13.55
2018-07-09T01:28:12.869Z,13.60
2018-07-09T01:29:12.904Z,13.48
2018-07-09T01:30:12.940Z,13.54
2018-07-09T01:31:12.978Z,13.51
2018-07-09T01:32:13.015Z,13.52
2018-07-09T01:33:13.053Z,13.54
2018-07-09T01:34:13.091Z,13.46
2018-07-09T01:35:13.126Z,13.52
2018-07-09T01:36:13.168Z,13.48
2018-07-09T01:37:13.202Z,13.46
2018-07-09T01:38:13.239Z,13.44
2018-07-09T01:39:13.280Z,13.36
2018-07-09T01:40:13.312Z,13.38
2018-07-09T01:41:13.350Z,13.29
2018-07-09T01:42:13.386Z,13.28
2018-07-09T01:43:13.425Z,13.26
2018-07-09T01:44:13.461Z,13.25
2018-07-09T01:45:13.500Z,13.23
2018-07-09T01:46:13.535Z,13.23
2018-07-09T01:47:13.572Z,13.32
2018-07-09T01:48:13.611Z,13.33
2018-07-09T01:49:13.647Z,13.28
2018-07-09T01:50:13.687Z,13.25
2018-07-09T01:51:13.721Z,13.25
2018-07-09T01:52:13.757Z,13.20
2018-07-09T01:53:13.794Z,13.26
2018-07-09T01:54:13.831Z,13.17
2018-07-09T01:55:13.871Z,13.14
2018-07-09T01:56:13.905Z,13.14
2018-07-09T01:57:13.944Z,13.11
2018-07-09T01:58:13.981Z,13.11
2018-07-09T01:59:14.022Z,13.10
2018-07-09T02:00:14.063Z,13.08
2018-07-09T02:01:14.092Z,13.01
2018-07-09T02:02:14.129Z,13.12
2018-07-09T02:03:14.166Z,13.00
2018-07-09T02:04:14.203Z,13.00
2018-07-09T02:05:14.241Z,12.97
2018-07-09T02:06:14.277Z,12.96
2018-07-09T02:07:14.355Z,12.96
2018-07-09T02:08:14.351Z,12.95
2018-07-09T02:09:14.388Z,12.95
2018-07-09T02:10:14.432Z,13.00
2018-07-09T02:11:14.461Z,12.95
2018-07-09T02:12:14.503Z,13.01
2018-07-09T02:13:14.536Z,12.93
2018-07-09T02:14:14.572Z,13.03
2018-07-09T02:15:14.610Z,13.05
2018-07-09T02:16:14.647Z,13.00
2018-07-09T02:17:14.683Z,13.01
2018-07-09T02:18:14.719Z,12.96
2018-07-09T02:19:14.757Z,12.97
2018-07-09T02:20:14.794Z,12.96
2018-07-09T02:21:14.830Z,12.96
2018-07-09T02:22:14.872Z,12.89
2018-07-09T02:23:14.904Z,12.92
2018-07-09T02:24:14.942Z,12.83
2018-07-09T02:25:14.978Z,12.83
2018-07-09T02:26:15.015Z,12.82
2018-07-09T02:27:15.051Z,12.78
2018-07-09T02:28:15.089Z,12.67
2018-07-09T02:29:15.129Z,12.64
2018-07-09T02:30:15.161Z,12.67
2018-07-09T02:31:15.211Z,12.71
2018-07-09T02:32:15.239Z,12.60
2018-07-09T02:33:15.286Z,12.59
2018-07-09T02:34:15.311Z,12.64
2018-07-09T02:35:15.348Z,12.56
2018-07-09T02:36:15.387Z,12.64
2018-07-09T02:37:15.420Z,12.68
2018-07-09T02:38:15.457Z,12.70
2018-07-09T02:39:15.495Z,12.67
2018-07-09T02:40:15.533Z,12.64
2018-07-09T02:41:15.570Z,12.71
2018-07-09T02:42:15.605Z,12.82
2018-07-09T02:43:15.640Z,12.74
2018-07-09T02:44:15.683Z,12.71
2018-07-09T02:45:15.715Z,12.77
2018-07-09T02:46:15.752Z,12.82
2018-07-09T02:47:15.787Z,12.75
2018-07-09T02:48:15.825Z,12.77
2018-07-09T02:49:15.928Z,12.75
2018-07-09T02:50:15.897Z,12.77
2018-07-09T02:51:15.934Z,12.74
2018-07-09T02:52:15.972Z,12.72
2018-07-09T02:53:16.011Z,12.68
2018-07-09T02:54:16.045Z,12.60
2018-07-09T02:55:16.114Z,12.60
2018-07-09T02:56:16.125Z,12.54
2018-07-09T02:57:16.154Z,12.60
2018-07-09T02:58:16.192Z,12.52
2018-07-09T02:59:16.227Z,12.53
2018-07-09T03:00:16.264Z,12.54
2018-07-09T03:01:16.320Z,12.54
2018-07-09T03:02:16.338Z,12.47
2018-07-09T03:03:16.374Z,12.56
2018-07-09T03:04:16.411Z,12.52
2018-07-09T03:05:16.457Z,12.52
2018-07-09T03:06:16.485Z,12.56
2018-07-09T03:07:16.522Z,12.52
2018-07-09T03:08:16.557Z,12.52
2018-07-09T03:09:16.596Z,12.41
2018-07-09T03:10:16.631Z,12.46
2018-07-09T03:11:16.676Z,12.42
2018-07-09T03:12:16.705Z,12.42
2018-07-09T03:13:16.742Z,12.39
2018-07-09T03:14:16.790Z,12.34
2018-07-09T03:15:16.813Z,12.34
2018-07-09T03:16:16.852Z,12.31
2018-07-09T03:17:16.889Z,12.28
2018-07-09T03:18:16.934Z,12.28
2018-07-09T03:19:16.961Z,12.32
2018-07-09T03:20:16.998Z,12.31
2018-07-09T03:21:17.034Z,12.28
2018-07-09T03:22:17.071Z,12.31
2018-07-09T03:23:17.107Z,12.23
2018-07-09T03:24:17.144Z,12.24
2018-07-09T03:25:17.179Z,12.17
2018-07-09T03:26:17.216Z,12.17
2018-07-09T03:27:17.253Z,12.13
2018-07-09T03:28:17.288Z,12.12
2018-07-09T03:29:17.326Z,12.12
2018-07-09T03:30:17.366Z,12.17
2018-07-09T03:31:17.397Z,12.19
2018-07-09T03:32:17.435Z,12.31
2018-07-09T03:33:17.487Z,12.24
2018-07-09T03:34:17.508Z,12.19
2018-07-09T03:35:17.552Z,12.24
2018-07-09T03:36:17.581Z,12.32
2018-07-09T03:37:17.619Z,12.24
2018-07-09T03:38:17.654Z,12.23
2018-07-09T03:39:17.691Z,12.28
2018-07-09T03:40:17.727Z,12.32
2018-07-09T03:41:17.765Z,12.34
2018-07-09T03:42:17.800Z,12.32
2018-07-09T03:43:17.836Z,12.34
2018-07-09T03:44:17.873Z,12.37
2018-07-09T03:45:17.910Z,12.41
2018-07-09T03:46:17.945Z,12.38
2018-07-09T03:47:17.983Z,12.45
2018-07-09T03:48:18.019Z,12.46
2018-07-09T03:49:18.053Z,12.42
2018-07-09T03:50:18.092Z,12.37
2018-07-09T03:51:18.127Z,12.35
2018-07-09T03:52:18.165Z,12.35
2018-07-09T03:53:18.201Z,12.35
2018-07-09T03:54:18.235Z,12.34
2018-07-09T03:55:18.272Z,12.35
2018-07-09T03:56:18.309Z,12.38
2018-07-09T03:57:18.346Z,12.41
2018-07-09T03:58:18.381Z,12.42
2018-07-09T03:59:18.417Z,12.45
2018-07-09T04:00:18.454Z,12.35
2018-07-09T04:01:18.492Z,12.45
2018-07-09T04:02:18.548Z,12.42
2018-07-09T04:03:18.562Z,12.50
2018-07-09T04:04:18.601Z,12.50
2018-07-09T04:05:18.638Z,12.50
2018-07-09T04:06:18.673Z,12.50
2018-07-09T04:07:18.709Z,12.62
2018-07-09T04:08:18.747Z,12.65
2018-07-09T04:09:18.784Z,12.70
2018-07-09T04:10:18.821Z,12.74
2018-07-09T04:11:18.856Z,12.74
2018-07-09T04:12:18.893Z,12.78
2018-07-09T04:13:18.930Z,12.93
2018-07-09T04:14:18.965Z,12.87
2018-07-09T04:15:19.001Z,12.96
2018-07-09T04:16:19.040Z,12.95
2018-07-09T04:17:19.076Z,13.03
2018-07-09T04:18:19.112Z,12.96
2018-07-09T04:19:19.149Z,13.04
2018-07-09T04:20:19.185Z,13.10
2018-07-09T04:21:19.223Z,13.14
2018-07-09T04:22:19.258Z,13.14
2018-07-09T04:23:19.296Z,13.12
2018-07-09T04:24:19.333Z,13.11
2018-07-09T04:25:19.370Z,13.22
2018-07-09T04:26:19.419Z,13.23
2018-07-09T04:27:19.441Z,13.25
2018-07-09T04:28:19.479Z,13.25
2018-07-09T04:29:19.515Z,13.25
2018-07-09T04:30:19.552Z,13.30
2018-07-09T04:31:19.591Z,13.39
2018-07-09T04:32:19.624Z,13.39
2018-07-09T04:33:19.673Z,13.38
2018-07-09T04:34:19.698Z,13.38
2018-07-09T04:35:19.736Z,13.46
2018-07-09T04:36:19.776Z,13.44
2018-07-09T04:37:19.808Z,13.38
2018-07-09T04:38:19.846Z,13.48
2018-07-09T04:39:19.883Z,13.48
2018-07-09T04:40:19.932Z,13.48
2018-07-09T04:41:19.956Z,13.51
2018-07-09T04:42:19.999Z,13.57
2018-07-09T04:43:20.101Z,13.60
2018-07-09T04:44:20.068Z,13.67
2018-07-09T04:45:20.108Z,13.55
2018-07-09T04:46:20.148Z,13.64
2018-07-09T04:47:20.180Z,13.63
2018-07-09T04:48:20.214Z,13.70
2018-07-09T04:49:20.252Z,13.60
2018-07-09T04:50:20.287Z,13.63
2018-07-09T04:51:20.326Z,13.67
2018-07-09T04:52:20.361Z,13.69
2018-07-09T04:53:20.403Z,13.71
2018-07-09T04:54:20.441Z,13.82
2018-07-09T04:55:20.476Z,13.81
2018-07-09T04:56:20.510Z,13.84
2018-07-09T04:57:20.548Z,13.97
2018-07-09T04:58:20.582Z,13.91
2018-07-09T04:59:20.621Z,14.04
2018-07-09T05:00:20.666Z,14.00
2018-07-09T05:01:20.699Z,14.15
2018-07-09T05:02:20.730Z,14.22
2018-07-09T05:03:20.769Z,14.35
2018-07-09T05:04:20.855Z,14.37
2018-07-09T05:05:20.852Z,14.42
2018-07-09T05:06:20.880Z,14.36
2018-07-09T05:07:20.920Z,14.50
2018-07-09T05:08:20.955Z,14.54
2018-07-09T05:09:20.992Z,14.68
2018-07-09T05:10:21.033Z,14.61
2018-07-09T05:11:21.066Z,14.75
2018-07-09T05:12:21.104Z,14.77
2018-07-09T05:13:21.150Z,14.81
2018-07-09T05:14:21.179Z,14.89
2018-07-09T05:15:21.217Z,15.01
2018-07-09T05:16:21.254Z,15.01
2018-07-09T05:17:21.296Z,15.02
2018-07-09T05:18:21.331Z,15.09
2018-07-09T05:19:21.367Z,15.13
2018-07-09T05:20:21.404Z,15.11
2018-07-09T05:21:21.444Z,15.31
2018-07-09T05:22:21.479Z,15.57
2018-07-09T05:23:21.516Z,15.93
2018-07-09T05:24:21.556Z,16.41
2018-07-09T05:25:21.598Z,16.82
2018-07-09T05:26:21.630Z,17.03
2018-07-09T05:27:21.668Z,17.21
2018-07-09T05:28:21.707Z,17.33
2018-07-09T05:29:21.745Z,17.30
2018-07-09T05:30:21.789Z,16.91
2018-07-09T05:31:21.819Z,16.82
2018-07-09T05:32:21.857Z,16.50
2018-07-09T05:33:21.952Z,16.43
2018-07-09T05:34:21.932Z,16.39
2018-07-09T05:35:21.973Z,16.28
2018-07-09T05:36:22.009Z,16.12
2018-07-09T05:37:22.047Z,16.11
2018-07-09T05:38:22.088Z,16.07
2018-07-09T05:39:22.123Z,15.97
2018-07-09T05:40:22.161Z,15.97
2018-07-09T05:41:22.201Z,15.89
2018-07-09T05:42:22.238Z,15.94
2018-07-09T05:43:22.277Z,15.96
2018-07-09T05:44:22.314Z,16.01
2018-07-09T05:45:22.354Z,16.07
2018-07-09T05:46:22.393Z,16.11
2018-07-09T05:47:22.429Z,16.11
2018-07-09T05:48:22.567Z,16.28
2018-07-09T05:49:22.506Z,16.33
2018-07-09T05:50:22.542Z,16.43
2018-07-09T05:51:22.581Z,16.43
2018-07-09T05:52:22.665Z,16.56
2018-07-09T05:53:22.705Z,16.50
2018-07-09T05:54:22.695Z,16.68
2018-07-09T05:55:22.736Z,16.85
2018-07-09T05:56:22.771Z,16.86
2018-07-09T05:57:22.814Z,17.03
2018-07-09T05:58:22.849Z,17.11
2018-07-09T05:59:22.888Z,17.16
2018-07-09T06:00:22.924Z,17.28
2018-07-09T06:01:22.965Z,17.40
2018-07-09T06:02:23.010Z,17.44
2018-07-09T06:03:23.040Z,17.63
2018-07-09T06:04:23.080Z,17.72
2018-07-09T06:05:23.133Z,17.68
2018-07-09T06:06:23.155Z,17.74
2018-07-09T06:07:23.196Z,17.86
2018-07-09T06:08:23.232Z,17.92
2018-07-09T06:09:23.274Z,17.92
2018-07-09T06:10:23.313Z,17.87
2018-07-09T06:11:23.432Z,18.03
2018-07-09T06:12:23.388Z,18.14
2018-07-09T06:13:23.427Z,18.05
2018-07-09T06:14:23.465Z,18.00
2018-07-09T06:15:23.502Z,18.00
2018-07-09T06:16:23.540Z,18.11
2018-07-09T06:17:23.586Z,18.20
2018-07-09T06:18:23.617Z,18.14
2018-07-09T06:19:23.742Z,18.08
2018-07-09T06:20:23.695Z,18.07
2018-07-09T06:21:23.745Z,18.23
2018-07-09T06:22:23.774Z,18.15
2018-07-09T06:23:23.811Z,18.18
2018-07-09T06:24:23.852Z,18.20
2018-07-09T06:25:23.945Z,18.20
2018-07-09T06:26:23.981Z,18.29
2018-07-09T06:27:23.969Z,18.29
2018-07-09T06:28:24.008Z,18.18
2018-07-09T06:29:24.046Z,18.37
2018-07-09T06:30:24.086Z,18.33
2018-07-09T06:31:24.126Z,18.32
2018-07-09T06:32:24.165Z,18.41
2018-07-09T06:33:24.221Z,18.55
2018-07-09T06:34:24.242Z,18.60
2018-07-09T06:35:24.280Z,18.51
2018-07-09T06:36:24.318Z,18.55
2018-07-09T06:37:24.359Z,18.52
2018-07-09T06:38:24.399Z,18.39
2018-07-09T06:39:24.436Z,18.39
2018-07-09T06:40:24.476Z,18.35
2018-07-09T06:41:24.515Z,18.29
2018-07-09T06:42:24.554Z,18.23
2018-07-09T06:43:24.593Z,18.17
2018-07-09T06:44:24.632Z,18.25
2018-07-09T06:45:24.673Z,18.26
2018-07-09T06:46:24.714Z,18.44
2018-07-09T06:47:24.750Z,18.42
2018-07-09T06:48:24.796Z,18.45
2018-07-09T06:49:24.828Z,18.48
2018-07-09T06:50:24.867Z,18.50
2018-07-09T06:51:24.906Z,18.44
2018-07-09T06:52:24.948Z,18.41
2018-07-09T06:53:24.985Z,18.41
2018-07-09T06:54:25.028Z,18.17
2018-07-09T06:55:25.061Z,18.23
2018-07-09T06:56:25.103Z,18.23
2018-07-09T06:57:25.144Z,18.18
2018-07-09T06:58:25.185Z,18.23
2018-07-09T06:59:25.221Z,18.23
2018-07-09T07:00:25.258Z,18.36
2018-07-09T07:01:25.297Z,18.48
2018-07-09T07:02:25.523Z,18.47
2018-07-09T07:03:25.375Z,18.45
2018-07-09T07:04:25.415Z,18.55
2018-07-09T07:05:25.454Z,18.54
2018-07-09T07:06:25.504Z,18.57
2018-07-09T07:07:25.540Z,18.62
2018-07-09T07:08:25.570Z,18.70
2018-07-09T07:09:25.631Z,18.72
2018-07-09T07:10:25.653Z,18.80
2018-07-09T07:11:25.691Z,18.91
2018-07-09T07:12:25.726Z,18.73
2018-07-09T07:13:25.774Z,18.82
2018-07-09T07:14:25.848Z,18.80
2018-07-09T07:15:25.845Z,18.69
2018-07-09T07:16:25.884Z,18.84
2018-07-09T07:17:25.923Z,18.87
2018-07-09T07:18:25.961Z,18.85
2018-07-09T07:19:26.008Z,18.87
2018-07-09T07:20:26.041Z,18.92
2018-07-09T07:21:26.079Z,18.91
2018-07-09T07:22:26.119Z,19.11
2018-07-09T07:23:26.158Z,19.08
2018-07-09T07:24:26.195Z,19.18
2018-07-09T07:25:26.238Z,19.21
2018-07-09T07:26:26.296Z,19.22
2018-07-09T07:27:26.313Z,19.18
2018-07-09T07:28:26.355Z,19.06
2018-07-09T07:29:26.394Z,19.06
2018-07-09T07:30:26.431Z,19.13
2018-07-09T07:31:26.471Z,19.08
2018-07-09T07:32:26.510Z,19.10
2018-07-09T07:33:26.554Z,19.13
2018-07-09T07:34:26.588Z,19.13
2018-07-09T07:35:26.627Z,19.18
2018-07-09T07:36:26.665Z,19.16
2018-07-09T07:37:26.706Z,19.18
2018-07-09T07:38:26.743Z,19.16
2018-07-09T07:39:26.839Z,19.19
2018-07-09T07:40:26.823Z,19.26
2018-07-09T07:41:26.863Z,19.26
2018-07-09T07:42:26.902Z,19.40
2018-07-09T07:43:26.941Z,19.40
2018-07-09T07:44:26.981Z,19.31
2018-07-09T07:45:27.018Z,19.26
2018-07-09T07:46:27.067Z,19.23
2018-07-09T07:47:27.097Z,19.44
2018-07-09T07:48:27.141Z,19.46
2018-07-09T07:49:27.176Z,19.44
2018-07-09T07:50:27.286Z,19.29
2018-07-09T07:51:27.263Z,19.39
2018-07-09T07:52:27.297Z,19.36
2018-07-09T07:53:27.342Z,19.39
2018-07-09T07:54:27.373Z,19.36
2018-07-09T07:55:27.411Z,19.28
2018-07-09T07:56:27.454Z,19.28
2018-07-09T07:57:27.491Z,19.41
2018-07-09T07:58:27.531Z,19.41
2018-07-09T07:59:27.570Z,19.43
2018-07-09T08:00:27.610Z,19.48
2018-07-09T08:01:27.650Z,19.51
2018-07-09T08:02:27.693Z,19.56
2018-07-09T08:03:27.727Z,19.55
2018-07-09T08:04:27.768Z,19.63
2018-07-09T08:05:27.806Z,19.69
2018-07-09T08:06:27.845Z,19.48
2018-07-09T08:07:27.883Z,19.37
2018-07-09T08:08:27.924Z,19.54
2018-07-09T08:09:28.081Z,19.58
2018-07-09T08:10:28.002Z,19.54
2018-07-09T08:11:47.731Z,19.65
2018-07-09T08:13:29.008Z,19.73
2018-07-09T08:14:28.162Z,19.73
2018-07-09T08:15:28.223Z,19.76
2018-07-09T08:16:28.241Z,19.92
2018-07-09T08:17:28.280Z,19.94
2018-07-09T08:18:28.318Z,20.11
2018-07-09T08:19:28.358Z,20.03
2018-07-09T08:20:28.397Z,19.96
2018-07-09T08:21:28.438Z,19.96
2018-07-09T08:22:28.477Z,19.86
2018-07-09T08:23:28.516Z,19.95
2018-07-09T08:24:28.556Z,19.94
2018-07-09T08:25:28.687Z,19.91
2018-07-09T08:26:28.639Z,19.87
2018-07-09T08:27:28.681Z,19.92
2018-07-09T08:28:28.715Z,20.01
2018-07-09T08:29:28.757Z,20.10
2018-07-09T08:30:28.794Z,20.10
2018-07-09T08:31:28.875Z,20.16
2018-07-09T08:32:28.877Z,20.14
2018-07-09T08:33:28.914Z,20.05
2018-07-09T08:34:28.952Z,20.17
2018-07-09T08:35:28.991Z,20.21
2018-07-09T08:36:29.047Z,20.14
2018-07-09T08:37:29.072Z,20.31
2018-07-09T08:38:29.110Z,20.18
2018-07-09T08:39:29.151Z,20.11
2018-07-09T08:40:29.189Z,20.13
2018-07-09T08:41:29.231Z,20.28
2018-07-09T08:42:29.268Z,20.26
2018-07-09T08:43:29.308Z,20.26
2018-07-09T08:44:29.348Z,20.36
2018-07-09T08:45:29.389Z,20.42
2018-07-09T08:46:29.427Z,20.48
2018-07-09T08:47:29.574Z,20.42
2018-07-09T08:48:29.508Z,20.41
2018-07-09T08:49:29.562Z,20.57
2018-07-09T08:50:29.587Z,20.61
2018-07-09T08:51:29.628Z,20.54
2018-07-09T08:52:29.669Z,20.52
2018-07-09T08:53:29.707Z,20.61
2018-07-09T08:54:29.752Z,20.59
2018-07-09T08:55:29.787Z,20.62
2018-07-09T08:56:29.828Z,20.67
2018-07-09T08:57:29.868Z,20.82
2018-07-09T08:58:29.913Z,20.69
2018-07-09T08:59:29.947Z,20.73
2018-07-09T09:00:29.986Z,20.57
2018-07-09T09:01:30.031Z,20.67
2018-07-09T09:02:30.066Z,20.62
2018-07-09T09:03:30.106Z,20.59
2018-07-09T09:04:30.148Z,20.64
2018-07-09T09:05:30.188Z,20.70
2018-07-09T09:06:30.228Z,20.72
2018-07-09T09:07:30.272Z,20.82
2018-07-09T09:08:30.303Z,20.76
2018-07-09T09:09:30.345Z,20.77
2018-07-09T09:10:30.447Z,20.69
2018-07-09T09:11:30.427Z,20.69
2018-07-09T09:12:30.465Z,20.79
2018-07-09T09:13:30.507Z,20.77
2018-07-09T09:14:30.544Z,20.85
2018-07-09T09:15:30.585Z,20.80
2018-07-09T09:16:30.638Z,20.82
2018-07-09T09:17:30.670Z,20.84
2018-07-09T09:18:30.706Z,20.84
2018-07-09T09:19:30.745Z,20.88
2018-07-09T09:20:30.784Z,20.94
2018-07-09T09:21:30.827Z,21.06
2018-07-09T09:22:30.867Z,21.17
2018-07-09T09:23:30.906Z,21.27
2018-07-09T09:24:30.945Z,21.34
2018-07-09T09:25:31.004Z,21.25
2018-07-09T09:26:31.024Z,21.19
2018-07-09T09:27:31.065Z,21.09
2018-07-09T09:28:31.106Z,21.07
2018-07-09T09:29:31.145Z,21.16
2018-07-09T09:30:31.237Z,21.17
2018-07-09T09:31:31.325Z,21.17
2018-07-09T09:32:31.264Z,21.16
2018-07-09T09:33:31.305Z,21.31
2018-07-09T09:34:31.353Z,21.40
2018-07-09T09:35:31.386Z,21.40
2018-07-09T09:36:31.430Z,21.44
2018-07-09T09:37:31.490Z,21.53
2018-07-09T09:38:31.503Z,21.59
2018-07-09T09:39:31.545Z,21.50
2018-07-09T09:40:31.586Z,21.59
2018-07-09T09:41:31.627Z,21.65
2018-07-09T09:42:31.665Z,21.64
2018-07-09T09:43:31.706Z,21.64
2018-07-09T09:44:31.747Z,21.77
2018-07-09T09:45:31.787Z,21.90
2018-07-09T09:46:31.827Z,21.72
2018-07-09T09:47:31.868Z,21.61
2018-07-09T09:48:31.908Z,21.64
2018-07-09T09:49:31.948Z,21.74
2018-07-09T09:50:31.988Z,21.79
2018-07-09T09:51:32.036Z,21.82
2018-07-09T09:52:32.070Z,21.99
2018-07-09T09:53:32.111Z,21.98
2018-07-09T09:54:32.150Z,21.98
2018-07-09T09:55:32.191Z,21.88
2018-07-09T09:56:32.232Z,21.92
2018-07-09T09:57:32.276Z,21.98
2018-07-09T09:58:32.314Z,22.09
2018-07-09T09:59:32.353Z,22.24
2018-07-09T10:00:32.399Z,22.21
2018-07-09T10:01:32.436Z,22.31
2018-07-09T10:02:32.484Z,22.24
2018-07-09T10:03:32.514Z,22.37
2018-07-09T10:04:32.557Z,22.30
2018-07-09T10:05:32.597Z,22.21
2018-07-09T10:06:32.683Z,22.10
2018-07-09T10:07:32.677Z,22.00
2018-07-09T10:08:32.738Z,22.03
2018-07-09T10:09:32.758Z,22.03
2018-07-09T10:10:32.797Z,21.92
2018-07-09T10:11:32.836Z,22.03
2018-07-09T10:12:32.879Z,22.25
2018-07-09T10:13:32.919Z,22.33
2018-07-09T10:14:32.959Z,22.28
2018-07-09T10:15:33.001Z,22.33
2018-07-09T10:16:33.045Z,22.31
2018-07-09T10:17:33.082Z,22.37
2018-07-09T10:18:33.122Z,22.22
2018-07-09T10:19:33.163Z,22.24
2018-07-09T10:20:33.203Z,22.21
2018-07-09T10:21:33.253Z,22.37
2018-07-09T10:22:33.312Z,22.37
2018-07-09T10:23:33.393Z,22.39
2018-07-09T10:24:33.369Z,22.33
2018-07-09T10:25:33.412Z,22.42
2018-07-09T10:26:33.448Z,22.37
2018-07-09T10:27:33.490Z,22.49
2018-07-09T10:28:33.530Z,22.47
2018-07-09T10:29:33.572Z,22.33
2018-07-09T10:30:33.669Z,22.39
2018-07-09T10:31:33.654Z,22.55
2018-07-09T10:32:33.694Z,22.61
2018-07-09T10:33:33.735Z,22.67
2018-07-09T10:34:33.774Z,22.68
2018-07-09T10:35:33.815Z,22.72
2018-07-09T10:36:33.866Z,22.58
2018-07-09T10:37:33.898Z,22.58
2018-07-09T10:38:33.937Z,22.58
2018-07-09T10:39:33.997Z,22.68
2018-07-09T10:40:34.022Z,22.67
2018-07-09T10:41:34.062Z,22.75
2018-07-09T10:42:34.101Z,22.82
2018-07-09T10:43:34.142Z,22.91
2018-07-09T10:44:34.183Z,22.94
2018-07-09T10:45:34.234Z,22.92
2018-07-09T10:46:34.267Z,22.85
2018-07-09T10:47:34.314Z,22.92
2018-07-09T10:48:34.347Z,22.86
2018-07-09T10:49:34.398Z,22.86
2018-07-09T10:50:34.429Z,22.85
2018-07-09T10:51:34.471Z,22.85
2018-07-09T10:52:34.512Z,22.90
2018-07-09T10:53:34.553Z,22.88
2018-07-09T10:54:34.595Z,22.94
2018-07-09T10:55:34.635Z,22.95
2018-07-09T10:56:34.725Z,22.95
2018-07-09T10:57:34.717Z,23.12
2018-07-09T10:58:34.758Z,23.22
2018-07-09T10:59:34.801Z,23.33
2018-07-09T11:00:34.841Z,23.38
2018-07-09T11:01:34.889Z,23.43
2018-07-09T11:02:34.922Z,23.42
2018-07-09T11:03:34.963Z,23.39
2018-07-09T11:04:35.008Z,23.35
2018-07-09T11:05:35.046Z,23.50
2018-07-09T11:07:35.128Z,23.38
2018-07-09T11:08:35.173Z,23.39
2018-07-09T11:09:35.222Z,23.39
2018-07-09T11:10:35.252Z,23.46
2018-07-09T11:11:35.303Z,23.53
2018-07-09T11:12:35.338Z,23.55
2018-07-09T11:13:35.385Z,23.69
2018-07-09T11:14:35.418Z,23.65
2018-07-09T11:15:35.486Z,23.70
2018-07-09T11:16:35.501Z,23.63
2018-07-09T11:17:35.545Z,23.66
2018-07-09T11:18:35.582Z,23.79
2018-07-09T11:19:35.626Z,23.63
2018-07-09T11:20:35.667Z,23.73
2018-07-09T11:21:35.725Z,23.87
2018-07-09T11:22:35.748Z,23.90
2018-07-09T11:23:35.796Z,24.00
2018-07-09T11:24:35.832Z,23.90
2018-07-09T11:25:35.876Z,23.79
2018-07-09T11:26:35.915Z,23.70
2018-07-09T11:27:35.959Z,23.60
2018-07-09T11:28:36.006Z,23.55
2018-07-09T11:29:36.042Z,23.57
2018-07-09T11:30:36.083Z,23.66
2018-07-09T11:31:36.123Z,23.80
2018-07-09T11:32:36.166Z,23.80
2018-07-09T11:33:36.207Z,23.87
2018-07-09T11:34:36.248Z,23.83
2018-07-09T11:35:36.289Z,23.88
2018-07-09T11:36:36.331Z,23.90
2018-07-09T11:37:36.380Z,23.91
2018-07-09T11:38:36.416Z,23.94
2018-07-09T11:39:36.455Z,24.05
2018-07-09T11:40:36.498Z,24.10
2018-07-09T11:41:36.539Z,24.10
2018-07-09T11:42:36.579Z,24.13
2018-07-09T11:43:36.630Z,24.27
2018-07-09T11:44:36.929Z,24.35
2018-07-09T11:45:36.716Z,24.45
2018-07-09T11:46:36.749Z,24.50
2018-07-09T11:47:36.800Z,24.49
2018-07-09T11:48:36.832Z,24.53
2018-07-09T11:49:36.875Z,24.64
2018-07-09T11:50:36.917Z,24.69
2018-07-09T11:51:36.958Z,24.73
2018-07-09T11:52:37.000Z,24.69
2018-07-09T11:53:37.041Z,24.61
2018-07-09T11:54:37.085Z,24.60
2018-07-09T11:55:37.129Z,24.60
2018-07-09T11:56:37.172Z,24.73
2018-07-09T11:57:37.212Z,24.95
2018-07-09T11:58:37.294Z,24.93
2018-07-09T11:59:37.309Z,25.00
2018-07-09T12:00:37.338Z,25.03
2018-07-09T12:01:37.388Z,24.99
2018-07-09T12:02:37.419Z,25.14
2018-07-09T12:03:37.468Z,25.25
2018-07-09T12:04:37.508Z,25.21
2018-07-09T12:05:37.548Z,25.23
2018-07-09T12:06:37.599Z,25.21
2018-07-09T12:07:37.633Z,25.30
2018-07-09T12:08:37.675Z,25.43
2018-07-09T12:09:37.721Z,25.27
2018-07-09T12:10:37.757Z,25.38
2018-07-09T12:11:37.809Z,25.50
2018-07-09T12:12:37.851Z,25.55
2018-07-09T12:13:37.887Z,25.51
2018-07-09T12:14:37.937Z,25.50
2018-07-09T12:15:37.972Z,25.64
2018-07-09T12:16:38.013Z,25.67
2018-07-09T12:17:38.057Z,25.92
2018-07-09T12:18:38.101Z,25.85
2018-07-09T12:19:38.142Z,25.95
2018-07-09T12:20:38.187Z,26.12
2018-07-09T12:21:38.261Z,26.28
2018-07-09T12:22:38.270Z,26.39
2018-07-09T12:23:38.315Z,26.30
2018-07-09T12:24:38.358Z,26.09
2018-07-09T12:25:38.402Z,26.18
2018-07-09T12:26:38.444Z,26.33
2018-07-09T12:27:38.491Z,26.37
2018-07-09T12:28:38.581Z,26.45
2018-07-09T12:29:38.574Z,26.43
2018-07-09T12:30:38.617Z,26.44
2018-07-09T12:31:38.660Z,26.25
2018-07-09T12:32:38.708Z,26.12
2018-07-09T12:33:38.746Z,26.10
2018-07-09T12:34:38.791Z,26.33
2018-07-09T12:35:38.832Z,26.25
2018-07-09T12:36:38.876Z,26.30
2018-07-09T12:37:38.921Z,26.36
2018-07-09T12:38:38.966Z,26.47
2018-07-09T12:39:39.015Z,26.32
2018-07-09T12:40:39.052Z,26.37
2018-07-09T12:41:39.099Z,26.12
2018-07-09T12:42:39.139Z,26.13
2018-07-09T12:43:39.185Z,26.17
2018-07-09T12:44:39.227Z,26.28
2018-07-09T12:45:39.271Z,26.39
2018-07-09T12:46:39.313Z,26.55
2018-07-09T12:47:39.373Z,26.67
2018-07-09T12:48:39.406Z,26.88
2018-07-09T12:49:39.567Z,26.95
2018-07-09T12:50:39.490Z,26.73
2018-07-09T12:51:39.542Z,26.60
2018-07-09T12:52:39.592Z,26.50
2018-07-09T12:53:39.624Z,26.44
2018-07-09T12:54:39.670Z,26.43